createdAt,value
2023-03-07T00:00:23.272Z,1008.0
2023-03-07T00:15:23.371Z,1008.0
2023-03-07T00:30:23.512Z,1008.0
2023-03-07T00:45:23.441Z,1008.0
2023-03-07T01:00:23.462Z,1008.0
2023-03-07T01:15:23.652Z,1008.0
2023-03-07T01:30:23.588Z,1008.0
2023-03-07T01:45:23.774Z,1008.0
2023-03-07T02:00:23.757Z,1008.0
2023-03-07T02:15:23.911Z,1008.0
2023-03-07T02:30:24.025Z,1007.7
2023-03-07T02:45:23.901Z,1007.0
2023-03-07T03:00:24.074Z,1007.0
2023-03-07T03:15:23.846Z,1007.0
2023-03-07T03:30:23.776Z,1007.0
2023-03-07T03:45:23.862Z,1007.0
2023-03-07T04:00:33.117Z,1007.0
2023-03-07T04:15:22.975Z,1007.0
2023-03-07T04:30:23.032Z,1007.0
2023-03-07T04:45:23.185Z,1007.0
2023-03-07T05:00:23.183Z,1007.0
2023-03-07T05:15:23.224Z,1007.0
2023-03-07T05:30:22.988Z,1007.0
2023-03-07T05:45:23.474Z,1006.0
2023-03-07T06:00:23.414Z,1007.0
2023-03-07T06:15:24.727Z,1007.0
2023-03-07T06:30:23.736Z,1005.0
2023-03-07T06:45:23.721Z,1005.0
2023-03-07T07:00:24.155Z,1005.0
2023-03-07T07:15:24.017Z,1005.0
2023-03-07T07:30:24.309Z,1005.0
2023-03-07T07:45:24.068Z,1005.0
2023-03-07T08:00:24.173Z,1005.0
2023-03-07T08:15:24.176Z,1005.0
2023-03-07T08:30:24.224Z,1005.0
2023-03-07T08:45:23.658Z,1005.0
2023-03-07T09:00:33.272Z,1005.0
2023-03-07T09:15:23.347Z,1005.0
2023-03-07T09:30:24.165Z,1005.0
2023-03-07T09:45:23.098Z,1005.0
2023-03-07T10:00:22.968Z,1004.5
2023-03-07T10:15:23.749Z,1004.0
2023-03-07T10:30:23.073Z,1004.0
2023-03-07T10:45:23.106Z,1004.0
2023-03-07T11:00:24.478Z,1004.0
2023-03-07T11:15:33.658Z,1004.0
2023-03-07T11:30:33.577Z,1004.0
2023-03-07T11:45:32.822Z,1004.0
2023-03-07T12:00:33.551Z,1003.7
2023-03-07T12:15:23.740Z,1004.0
2023-03-07T12:30:23.777Z,1003.7
2023-03-07T12:45:26.066Z,1003.0
2023-03-07T13:00:23.613Z,1003.0
2023-03-07T13:15:24.110Z,1003.0
2023-03-07T13:30:23.727Z,1003.0
2023-03-07T13:45:23.993Z,1003.0
2023-03-07T14:00:23.850Z,1003.0
2023-03-07T14:15:24.078Z,1002.0
2023-03-07T14:30:23.943Z,1002.3
2023-03-07T14:45:24.290Z,1002.0
2023-03-07T15:00:24.112Z,1002.0
2023-03-07T15:15:24.085Z,1002.0
2023-03-07T15:30:24.007Z,1002.0
2023-03-07T15:45:24.255Z,1002.0
2023-03-07T16:00:26.002Z,1002.0
2023-03-07T16:15:24.370Z,1002.0
2023-03-07T16:30:33.433Z,1002.0
2023-03-07T16:45:33.527Z,1002.0
2023-03-07T17:00:33.609Z,1002.0
2023-03-07T17:15:23.580Z,1002.5
2023-03-07T17:30:23.593Z,1003.0
2023-03-07T17:45:23.724Z,1003.0
2023-03-07T18:00:23.845Z,1004.0
2023-03-07T18:15:23.681Z,1003.5
2023-03-07T18:30:23.838Z,1003.7
2023-03-07T18:45:23.906Z,1004.0
2023-03-07T19:00:23.793Z,1004.0
2023-03-07T19:15:23.887Z,1004.0
2023-03-07T19:30:24.086Z,1004.0
2023-03-07T19:45:24.108Z,1004.0
2023-03-07T20:00:26.087Z,1004.3
2023-03-07T20:15:24.458Z,1004.0
2023-03-07T20:30:24.379Z,1004.0
2023-03-07T20:45:24.361Z,1005.0
2023-03-07T21:00:24.320Z,1005.0
2023-03-07T21:15:24.274Z,1005.0
2023-03-07T21:30:33.274Z,1005.0
2023-03-07T21:45:33.387Z,1005.0
2023-03-07T22:00:33.757Z,1005.0
2023-03-07T22:15:23.665Z,1005.0
2023-03-07T22:30:23.684Z,1005.0
2023-03-07T22:45:23.631Z,1007.0
2023-03-07T23:15:24.385Z,1006.0
2023-03-07T23:30:33.485Z,1005.0
2023-03-07T23:45:33.280Z,1005.7
